createdAt,value
2017-05-03T00:02:10.338Z,36.15
2017-05-03T00:04:39.138Z,31.85
2017-05-03T00:09:50.897Z,35.93
2017-05-03T00:12:19.537Z,33.07
2017-05-03T00:30:17.138Z,30.25
2017-05-03T00:32:45.543Z,32.77
2017-05-03T00:35:13.927Z,32.40
2017-05-03T00:37:43.197Z,33.95
2017-05-03T00:40:12.321Z,30.18
2017-05-03T00:42:41.370Z,29.37
2017-05-03T00:45:09.712Z,31.55
2017-05-03T00:47:38.030Z,30.92
2017-05-03T00:50:07.322Z,31.08
2017-05-03T00:52:35.776Z,32.57
2017-05-03T00:55:04.099Z,31.60
2017-05-03T00:57:33.092Z,30.87
2017-05-03T01:00:02.241Z,32.88
2017-05-03T01:02:31.994Z,31.90
2017-05-03T01:05:00.455Z,31.03
2017-05-03T01:07:28.805Z,29.32
2017-05-03T01:10:03.237Z,31.33
2017-05-03T01:12:31.553Z,30.82
2017-05-03T01:14:59.951Z,33.25
2017-05-03T01:17:28.427Z,33.70
2017-05-03T01:19:56.735Z,32.98
2017-05-03T01:22:25.116Z,32.80
2017-05-03T01:24:53.989Z,30.20
2017-05-03T01:27:23.011Z,32.80
2017-05-03T01:29:51.368Z,32.65
2017-05-03T01:32:20.596Z,33.67
2017-05-03T01:34:49.617Z,30.30
2017-05-03T01:37:17.945Z,30.58
2017-05-03T01:39:46.445Z,31.40
2017-05-03T01:42:14.833Z,31.58
2017-05-03T01:44:43.178Z,30.52
2017-05-03T01:47:12.762Z,31.63
2017-05-03T01:49:41.131Z,31.17
2017-05-03T01:52:09.447Z,30.83
2017-05-03T01:54:38.137Z,33.90
2017-05-03T01:57:06.537Z,31.57
2017-05-03T01:59:34.849Z,33.43
2017-05-03T02:02:03.165Z,33.42
2017-05-03T02:04:32.929Z,32.23
2017-05-03T02:07:01.258Z,32.63
2017-05-03T02:09:29.675Z,35.10
2017-05-03T02:11:58.003Z,35.08
2017-05-03T02:14:27.135Z,33.60
2017-05-03T02:16:55.474Z,34.27
2017-05-03T02:19:24.538Z,32.60
2017-05-03T02:21:52.905Z,33.22
2017-05-03T02:24:21.889Z,31.65
2017-05-03T02:26:50.240Z,32.30
2017-05-03T02:29:18.597Z,31.92
2017-05-03T02:31:47.687Z,31.20
2017-05-03T02:34:17.459Z,33.00
2017-05-03T02:36:45.781Z,32.68
2017-05-03T02:39:14.870Z,29.77
2017-05-03T02:41:44.390Z,28.38
2017-05-03T02:44:12.705Z,29.42
2017-05-03T02:46:41.044Z,29.98
2017-05-03T02:49:09.365Z,29.23
2017-05-03T02:51:37.846Z,31.85
2017-05-03T02:54:06.237Z,31.65
2017-05-03T02:56:34.563Z,29.10
2017-05-03T02:59:03.707Z,27.90
2017-05-03T03:01:32.038Z,29.50
2017-05-03T03:04:00.335Z,27.93
2017-05-03T03:06:28.649Z,28.37
2017-05-03T03:08:56.977Z,25.33
2017-05-03T03:11:25.310Z,25.72
2017-05-03T03:13:53.670Z,27.08
2017-05-03T03:16:22.006Z,27.37
2017-05-03T03:18:50.411Z,25.53
2017-05-03T03:21:18.751Z,28.47
2017-05-03T03:23:47.814Z,28.33
2017-05-03T03:26:17.061Z,30.95
2017-05-03T03:28:45.387Z,30.45
2017-05-03T03:31:13.969Z,29.48
2017-05-03T03:33:42.331Z,30.68
2017-05-03T03:36:10.774Z,29.63
2017-05-03T03:38:39.117Z,30.65
2017-05-03T03:41:07.452Z,32.22
2017-05-03T03:43:36.214Z,30.17
2017-05-03T03:46:04.517Z,30.38
2017-05-03T03:48:32.997Z,29.77
2017-05-03T03:51:01.301Z,30.62
2017-05-03T03:53:29.612Z,31.38
2017-05-03T03:55:57.951Z,29.42
2017-05-03T03:58:26.444Z,30.28
2017-05-03T04:00:55.580Z,31.93
2017-05-03T04:03:24.849Z,29.97
2017-05-03T04:08:35.118Z,31.17
2017-05-03T04:11:07.082Z,29.18
2017-05-03T04:13:35.490Z,31.83
2017-05-03T04:16:04.572Z,32.10
2017-05-03T04:18:33.686Z,30.30
2017-05-03T04:21:10.814Z,31.90
2017-05-03T04:23:39.328Z,30.85
2017-05-03T04:26:08.574Z,29.30
2017-05-03T04:28:37.034Z,33.43
2017-05-03T04:31:08.974Z,30.55
2017-05-03T04:33:40.999Z,32.57
2017-05-03T04:36:14.196Z,30.93
2017-05-03T04:38:42.577Z,31.47
2017-05-03T04:41:11.593Z,33.00
2017-05-03T04:43:39.934Z,30.23
2017-05-03T04:46:08.297Z,31.93
2017-05-03T04:48:36.828Z,29.30
2017-05-03T04:51:05.158Z,29.60
2017-05-03T04:53:33.718Z,30.30
2017-05-03T04:56:02.806Z,31.92
2017-05-03T04:58:31.934Z,31.07
2017-05-03T05:01:00.379Z,30.55
2017-05-03T05:03:30.316Z,32.08
2017-05-03T05:05:58.651Z,32.28
2017-05-03T05:08:27.727Z,29.67
2017-05-03T05:10:56.106Z,32.95
2017-05-03T05:13:24.455Z,33.27
2017-05-03T05:15:52.786Z,35.43
2017-05-03T05:18:21.188Z,33.02
2017-05-03T05:20:50.776Z,32.97
2017-05-03T05:23:19.076Z,30.48
2017-05-03T05:25:48.146Z,31.50
2017-05-03T05:28:16.721Z,31.50
2017-05-03T05:33:39.166Z,34.22
2017-05-03T05:36:08.730Z,29.57
2017-05-03T05:38:37.513Z,30.93
2017-05-03T05:41:05.883Z,30.03
2017-05-03T05:43:35.033Z,29.02
2017-05-03T05:46:04.636Z,28.90
2017-05-03T05:48:33.079Z,27.83
2017-05-03T05:53:55.014Z,26.90
2017-05-03T05:56:23.342Z,26.02
2017-05-03T05:58:51.691Z,26.45
2017-05-03T06:01:27.544Z,26.60
2017-05-03T06:03:56.030Z,25.33
2017-05-03T06:06:26.187Z,26.95
2017-05-03T06:08:56.150Z,26.13
2017-05-03T06:11:24.711Z,25.10
2017-05-03T06:13:59.023Z,25.15
2017-05-03T06:16:32.464Z,25.63
2017-05-03T06:19:00.848Z,26.47
2017-05-03T06:21:35.295Z,26.17
2017-05-03T06:24:05.020Z,26.68
2017-05-03T06:26:34.759Z,25.30
2017-05-03T06:31:56.929Z,27.42
2017-05-03T06:34:25.418Z,24.58
2017-05-03T06:36:53.838Z,24.03
2017-05-03T06:39:22.202Z,23.87
2017-05-03T06:41:50.608Z,27.22
2017-05-03T06:44:18.985Z,27.52
2017-05-03T06:46:48.196Z,26.20
2017-05-03T06:49:16.774Z,26.35
2017-05-03T06:51:46.615Z,27.52
2017-05-03T06:54:15.070Z,27.28
2017-05-03T06:56:44.215Z,27.40
2017-05-03T06:59:13.042Z,27.22
2017-05-03T07:01:41.620Z,27.03
2017-05-03T07:04:10.373Z,26.70
2017-05-03T07:06:38.782Z,28.48
2017-05-03T07:09:07.266Z,28.73
2017-05-03T07:11:35.607Z,30.83
2017-05-03T07:14:03.951Z,28.82
2017-05-03T07:16:33.115Z,27.12
2017-05-03T07:19:01.447Z,27.78
2017-05-03T07:21:29.893Z,26.87
2017-05-03T07:26:47.719Z,27.63
2017-05-03T07:29:17.332Z,28.43
2017-05-03T07:31:45.753Z,28.23
2017-05-03T07:34:14.221Z,27.10
2017-05-03T07:36:44.148Z,28.10
2017-05-03T07:39:15.349Z,27.35
2017-05-03T07:41:49.360Z,27.37
2017-05-03T07:44:18.492Z,28.52
2017-05-03T07:46:58.919Z,26.55
2017-05-03T07:49:27.390Z,28.15
2017-05-03T07:51:57.297Z,25.35
2017-05-03T07:54:27.495Z,25.90
2017-05-03T07:56:56.804Z,24.95
2017-05-03T07:59:25.184Z,26.58
2017-05-03T08:01:53.639Z,27.17
2017-05-03T08:04:28.962Z,30.03
2017-05-03T08:06:57.567Z,28.82
2017-05-03T08:09:28.564Z,25.72
2017-05-03T08:11:57.106Z,28.93
2017-05-03T08:14:25.499Z,27.78
2017-05-03T08:16:54.369Z,25.47
2017-05-03T08:19:22.704Z,29.15
2017-05-03T08:21:51.151Z,28.48
2017-05-03T08:24:20.486Z,30.77
2017-05-03T08:26:48.966Z,29.60
2017-05-03T08:29:17.323Z,29.55
2017-05-03T08:31:45.683Z,25.30
2017-05-03T08:34:14.123Z,27.12
2017-05-03T08:36:43.253Z,29.55
2017-05-03T08:39:11.601Z,29.62
2017-05-03T08:41:40.009Z,30.93
2017-05-03T08:44:08.376Z,29.82
2017-05-03T08:46:36.710Z,30.72
2017-05-03T08:49:13.816Z,32.52
2017-05-03T08:51:53.892Z,30.07
2017-05-03T08:57:03.014Z,28.97
2017-05-03T09:02:42.802Z,30.12
2017-05-03T09:05:27.630Z,30.42
2017-05-03T09:10:37.404Z,28.35
2017-05-03T09:13:07.712Z,29.07
2017-05-03T09:15:42.067Z,29.87
2017-05-03T09:18:11.875Z,27.63
2017-05-03T09:23:41.762Z,28.43
2017-05-03T09:26:18.200Z,31.67
2017-05-03T09:28:58.966Z,27.57
2017-05-03T09:31:53.919Z,27.02
2017-05-03T09:34:38.708Z,29.37
2017-05-03T09:37:08.740Z,29.82
2017-05-03T09:39:38.743Z,28.25
2017-05-03T09:42:18.808Z,26.62
2017-05-03T09:44:50.348Z,26.42
2017-05-03T09:47:20.065Z,25.35
2017-05-03T09:50:10.983Z,25.58
2017-05-03T09:52:39.478Z,25.70
2017-05-03T09:55:09.362Z,26.73
2017-05-03T09:57:41.541Z,25.73
2017-05-03T10:00:10.231Z,24.75
2017-05-03T10:02:38.618Z,24.22
2017-05-03T10:05:07.028Z,26.30
2017-05-03T10:07:35.515Z,23.50
2017-05-03T10:10:04.341Z,24.48
2017-05-03T10:12:33.569Z,21.05
2017-05-03T10:15:02.015Z,23.77
2017-05-03T10:17:30.453Z,23.38
2017-05-03T10:19:59.765Z,24.23
2017-05-03T10:22:28.197Z,24.97
2017-05-03T10:24:56.625Z,23.73
2017-05-03T10:27:25.010Z,23.78
2017-05-03T10:29:53.381Z,23.80
2017-05-03T10:32:24.322Z,20.70
2017-05-03T10:34:52.763Z,21.63
2017-05-03T10:37:21.143Z,21.62
2017-05-03T10:39:49.561Z,19.97
2017-05-03T10:42:17.904Z,42.35
2017-05-03T10:44:46.490Z,21.32
2017-05-03T10:47:14.868Z,23.18
2017-05-03T10:49:43.280Z,21.67
2017-05-03T10:52:13.380Z,20.90
2017-05-03T10:54:42.242Z,21.20
2017-05-03T10:57:10.615Z,21.28
2017-05-03T10:59:38.973Z,21.75
2017-05-03T11:02:09.319Z,22.22
2017-05-03T11:04:37.702Z,19.43
2017-05-03T11:09:42.755Z,21.25
2017-05-03T11:12:11.113Z,21.58
2017-05-03T11:14:40.328Z,19.35
2017-05-03T11:17:08.740Z,18.58
2017-05-03T11:19:37.169Z,18.40
2017-05-03T11:22:09.688Z,18.27
2017-05-03T11:24:38.978Z,20.30
2017-05-03T11:27:07.459Z,19.32
2017-05-03T11:32:44.019Z,19.13
2017-05-03T11:35:12.973Z,17.82
2017-05-03T11:37:42.392Z,16.98
2017-05-03T11:40:11.534Z,14.08
2017-05-03T11:42:39.984Z,15.50
2017-05-03T11:45:10.044Z,15.27
2017-05-03T11:47:38.522Z,14.93
2017-05-03T11:50:06.924Z,15.55
2017-05-03T11:52:36.704Z,16.58
2017-05-03T11:55:05.224Z,14.50
2017-05-03T11:57:34.419Z,15.60
2017-05-03T12:00:03.591Z,16.18
2017-05-03T12:02:32.870Z,14.25
2017-05-03T12:05:01.289Z,15.23
2017-05-03T12:07:29.685Z,15.00
2017-05-03T12:09:58.825Z,12.15
2017-05-03T12:12:27.246Z,13.28
2017-05-03T12:14:55.626Z,14.18
2017-05-03T12:17:24.776Z,14.13
2017-05-03T12:19:53.178Z,13.93
2017-05-03T12:22:22.122Z,13.50
2017-05-03T12:24:50.832Z,14.67
2017-05-03T12:27:22.588Z,14.47
2017-05-03T12:29:50.944Z,14.93
2017-05-03T12:32:19.518Z,13.58
2017-05-03T12:34:47.896Z,14.13
2017-05-03T12:37:16.403Z,12.78
2017-05-03T12:39:45.496Z,12.95
2017-05-03T12:42:14.618Z,13.05
2017-05-03T12:44:43.036Z,14.92
2017-05-03T12:47:11.363Z,14.85
2017-05-03T12:49:39.734Z,14.60
2017-05-03T12:52:08.942Z,11.95
2017-05-03T12:54:37.262Z,12.87
2017-05-03T12:57:05.688Z,16.20
2017-05-03T12:59:34.569Z,13.40
2017-05-03T13:02:03.642Z,14.10
2017-05-03T13:04:31.973Z,14.12
2017-05-03T13:07:00.303Z,13.88
2017-05-03T13:09:28.691Z,13.22
2017-05-03T13:11:59.239Z,12.87
2017-05-03T13:14:27.623Z,14.80
2017-05-03T13:16:57.077Z,12.95
2017-05-03T13:22:33.675Z,14.03
2017-05-03T13:25:02.727Z,13.62
2017-05-03T13:27:31.560Z,12.88
2017-05-03T13:29:59.983Z,14.43
2017-05-03T13:32:28.377Z,14.53
2017-05-03T13:34:56.842Z,13.03
2017-05-03T13:37:25.381Z,14.00
2017-05-03T13:39:54.109Z,13.35
2017-05-03T13:42:22.618Z,14.25
2017-05-03T13:44:51.823Z,13.55
2017-05-03T13:47:20.946Z,15.17
2017-05-03T13:49:53.070Z,13.40
2017-05-03T13:52:21.532Z,15.62
2017-05-03T13:54:50.859Z,14.30
2017-05-03T13:57:19.419Z,15.05
2017-05-03T14:02:26.596Z,15.67
2017-05-03T14:04:54.958Z,16.08
2017-05-03T14:07:23.437Z,15.33
2017-05-03T14:09:51.818Z,14.38
2017-05-03T14:12:20.313Z,14.95
2017-05-03T14:14:49.547Z,12.87
2017-05-03T14:17:21.883Z,14.83
2017-05-03T14:19:50.519Z,14.10
2017-05-03T14:22:19.075Z,13.28
2017-05-03T14:24:48.251Z,13.00
2017-05-03T14:27:16.572Z,14.93
2017-05-03T14:29:44.964Z,12.95
2017-05-03T14:32:13.534Z,11.95
2017-05-03T14:34:42.746Z,12.85
2017-05-03T14:37:11.272Z,13.63
2017-05-03T14:39:40.475Z,11.05
2017-05-03T14:42:08.949Z,13.20
2017-05-03T14:44:38.451Z,13.15
2017-05-03T14:47:08.343Z,12.23
2017-05-03T14:49:38.491Z,12.77
2017-05-03T14:52:07.659Z,13.65
2017-05-03T14:54:36.063Z,12.73
2017-05-03T14:57:05.067Z,13.52
2017-05-03T14:59:34.949Z,12.27
2017-05-03T15:02:03.287Z,12.63
2017-05-03T15:04:38.704Z,13.78
2017-05-03T15:07:07.794Z,13.45
2017-05-03T15:09:37.805Z,14.97
2017-05-03T15:12:09.690Z,14.07
2017-05-03T15:14:38.662Z,14.62
2017-05-03T15:17:08.013Z,17.08
2017-05-03T15:19:37.157Z,13.93
2017-05-03T15:22:05.482Z,15.08
2017-05-03T15:24:33.826Z,15.12
2017-05-03T15:27:02.181Z,15.07
2017-05-03T15:29:30.545Z,14.88
2017-05-03T15:31:59.596Z,15.70
2017-05-03T15:34:28.004Z,15.25
2017-05-03T15:36:56.370Z,12.75
2017-05-03T15:39:24.714Z,17.43
2017-05-03T15:41:53.087Z,13.42
2017-05-03T15:44:21.431Z,13.27
2017-05-03T15:46:50.918Z,13.22
2017-05-03T15:49:19.949Z,12.33
2017-05-03T15:51:48.313Z,11.63
2017-05-03T15:54:16.708Z,12.53
2017-05-03T15:56:45.164Z,14.52
2017-05-03T15:59:14.253Z,12.58
2017-05-03T16:01:42.621Z,12.17
2017-05-03T16:04:10.962Z,12.85
2017-05-03T16:06:39.293Z,14.03
2017-05-03T16:09:07.633Z,12.28
2017-05-03T16:11:36.673Z,12.92
2017-05-03T16:14:06.016Z,11.43
2017-05-03T16:16:37.461Z,11.00
2017-05-03T16:19:08.232Z,11.75
2017-05-03T16:21:40.448Z,10.68
2017-05-03T16:24:11.855Z,13.05
2017-05-03T16:26:40.269Z,12.03
2017-05-03T16:29:08.692Z,11.12
2017-05-03T16:31:37.026Z,11.88
2017-05-03T16:34:05.407Z,11.05
2017-05-03T16:36:33.821Z,20.63
2017-05-03T16:39:02.205Z,15.70
2017-05-03T16:41:30.583Z,10.78
2017-05-03T16:43:59.210Z,12.05
2017-05-03T16:46:28.119Z,13.92
2017-05-03T16:48:56.480Z,12.40
2017-05-03T16:51:27.231Z,11.50
2017-05-03T16:53:55.718Z,10.97
2017-05-03T16:56:24.856Z,12.55
2017-05-03T16:58:53.298Z,10.58
2017-05-03T17:01:21.667Z,11.40
2017-05-03T17:03:50.152Z,11.53
2017-05-03T17:06:18.476Z,11.50
2017-05-03T17:08:46.882Z,11.38
2017-05-03T17:11:16.461Z,13.08
2017-05-03T17:13:44.870Z,12.05
2017-05-03T17:16:14.462Z,13.30
2017-05-03T17:18:43.866Z,19.05
2017-05-03T17:21:12.851Z,14.00
2017-05-03T17:23:41.346Z,12.08
2017-05-03T17:26:09.890Z,12.72
2017-05-03T17:28:38.284Z,12.47
2017-05-03T17:31:11.363Z,13.40
2017-05-03T17:33:39.804Z,17.05
2017-05-03T17:36:11.474Z,11.90
2017-05-03T17:38:44.696Z,11.78
2017-05-03T17:41:13.113Z,13.63
2017-05-03T17:43:41.490Z,12.03
2017-05-03T17:46:11.663Z,11.35
2017-05-03T17:49:10.526Z,10.48
2017-05-03T18:40:12.820Z,12.50
2017-05-03T18:42:42.042Z,17.52
2017-05-03T18:45:10.504Z,14.05
2017-05-03T18:47:39.692Z,11.02
2017-05-03T18:50:08.198Z,11.78
2017-05-03T18:52:37.464Z,10.90
2017-05-03T18:55:06.059Z,10.87
2017-05-03T18:57:35.383Z,10.38
2017-05-03T19:00:04.661Z,11.00
2017-05-03T19:02:34.044Z,12.37
2017-05-03T19:05:03.719Z,13.28
2017-05-03T19:07:32.881Z,9.28
2017-05-03T19:10:05.494Z,11.10
2017-05-03T19:12:33.909Z,11.62
2017-05-03T19:15:06.603Z,11.55
2017-05-03T19:17:38.815Z,10.12
2017-05-03T19:20:07.360Z,10.32
2017-05-03T19:22:36.196Z,11.70
2017-05-03T19:25:06.622Z,11.67
2017-05-03T19:27:35.449Z,12.22
2017-05-03T19:30:06.998Z,9.43
2017-05-03T19:32:40.928Z,9.47
2017-05-03T19:35:10.702Z,11.48
2017-05-03T19:37:43.159Z,11.10
2017-05-03T19:40:44.385Z,10.52
2017-05-03T19:43:13.970Z,11.45
2017-05-03T19:45:43.617Z,10.87
2017-05-03T19:48:17.637Z,10.05
2017-05-03T19:50:47.440Z,10.38
2017-05-03T19:55:54.993Z,8.78
2017-05-03T19:58:24.589Z,9.90
2017-05-03T20:01:08.677Z,8.85
2017-05-03T20:03:52.230Z,9.73
2017-05-03T20:09:08.531Z,8.25
2017-05-03T20:14:29.757Z,10.82
2017-05-03T20:20:10.225Z,10.88
2017-05-03T20:22:43.051Z,8.75
2017-05-03T20:25:18.011Z,7.32
2017-05-03T20:27:47.587Z,9.42
2017-05-03T20:30:15.925Z,9.77
2017-05-03T20:32:46.821Z,7.73
2017-05-03T20:35:15.295Z,8.57
2017-05-03T20:37:44.972Z,8.98
2017-05-03T20:40:14.184Z,7.70
2017-05-03T20:42:42.563Z,10.70
2017-05-03T20:48:23.475Z,10.07
2017-05-03T20:56:25.902Z,7.62
2017-05-03T21:01:48.647Z,8.57
2017-05-03T22:09:18.166Z,8.78
2017-05-03T22:11:52.612Z,8.50
2017-05-03T22:14:30.846Z,9.10
2017-05-03T22:42:47.355Z,8.00
2017-05-03T22:51:09.594Z,8.90
2017-05-03T22:53:39.582Z,9.87
2017-05-03T22:56:09.090Z,8.30
2017-05-03T22:58:38.355Z,8.17
2017-05-03T23:04:00.644Z,8.70
2017-05-03T23:06:29.747Z,8.70
2017-05-03T23:09:24.301Z,7.65
2017-05-03T23:11:53.981Z,7.20
2017-05-03T23:14:42.401Z,7.33
2017-05-03T23:17:10.840Z,7.35
2017-05-03T23:19:39.241Z,6.87
2017-05-03T23:22:25.338Z,7.62
2017-05-03T23:24:53.767Z,7.68
2017-05-03T23:31:40.765Z,8.00
2017-05-03T23:34:12.093Z,8.70
2017-05-03T23:36:40.453Z,8.08
2017-05-03T23:42:03.739Z,8.88
2017-05-03T23:44:33.037Z,8.12
2017-05-03T23:47:02.177Z,9.48
2017-05-03T23:49:30.490Z,7.97
2017-05-03T23:51:58.865Z,7.87
2017-05-03T23:54:27.246Z,7.47
2017-05-03T23:56:56.353Z,7.08
2017-05-03T23:59:25.457Z,8.63
